createdAt,value
2019-01-17T00:03:08.891Z,34.5
2019-01-17T00:08:40.673Z,33.200001
2019-01-17T00:14:03.814Z,29.1
2019-01-17T00:19:35.526Z,28.9
2019-01-17T00:24:59.990Z,32.200001
2019-01-17T00:30:23.190Z,29.4
2019-01-17T00:35:45.973Z,28.5
2019-01-17T00:41:19.450Z,24.1
2019-01-17T00:46:42.203Z,22.5
2019-01-17T00:52:13.940Z,21.299999
2019-01-17T00:57:37.299Z,23.4
2019-01-17T01:03:05.781Z,20
2019-01-17T01:08:39.871Z,20.6
2019-01-17T01:14:05.456Z,19
2019-01-17T01:19:29.107Z,17.799999
2019-01-17T01:24:56.087Z,18.6
2019-01-17T01:30:21.483Z,18.799999
2019-01-17T01:35:44.316Z,17.1
2019-01-17T01:41:07.971Z,21.1
2019-01-17T01:46:40.387Z,18
2019-01-17T01:52:03.945Z,14
2019-01-17T01:57:27.369Z,15.5
2019-01-17T02:02:50.958Z,12.9
2019-01-17T02:08:13.712Z,12.1
2019-01-17T02:13:36.743Z,8.5
2019-01-17T02:18:59.483Z,8.7
2019-01-17T02:24:28.449Z,9.5
2019-01-17T02:29:57.710Z,10.2
2019-01-17T02:35:22.305Z,10.3
2019-01-17T02:40:47.809Z,11.3
2019-01-17T02:46:11.616Z,8.8
2019-01-17T02:51:34.925Z,9.4
2019-01-17T02:56:57.659Z,6.7
2019-01-17T03:02:21.087Z,6.5
2019-01-17T03:07:45.306Z,4.8
2019-01-17T03:13:09.811Z,5.5
2019-01-17T03:18:35.314Z,4.7
2019-01-17T03:23:58.107Z,4.4
2019-01-17T03:29:20.784Z,6.1
2019-01-17T03:34:45.921Z,6.5
2019-01-17T03:40:12.809Z,7.9
2019-01-17T03:45:37.447Z,7.4
2019-01-17T03:51:05.305Z,8.3
2019-01-17T03:56:27.998Z,6
2019-01-17T04:01:50.810Z,4.7
2019-01-17T04:07:13.749Z,6.7
2019-01-17T04:12:36.693Z,6.5
2019-01-17T04:17:59.797Z,5.2
2019-01-17T04:23:22.625Z,6.4
2019-01-17T04:28:45.476Z,5.8
2019-01-17T04:34:09.421Z,4.5
2019-01-17T04:39:33.001Z,6.2
2019-01-17T04:44:57.286Z,5.4
2019-01-17T04:50:20.030Z,8.4
2019-01-17T04:55:43.386Z,7.9
2019-01-17T05:01:05.994Z,7.4
2019-01-17T05:06:29.576Z,9.3
2019-01-17T05:11:53.943Z,7.5
2019-01-17T05:17:18.277Z,10.3
2019-01-17T05:22:42.910Z,8.2
2019-01-17T05:28:06.277Z,9.1
2019-01-17T05:33:29.877Z,10.5
2019-01-17T05:38:52.566Z,9.7
2019-01-17T05:44:15.246Z,11.5
2019-01-17T05:49:37.924Z,11.7
2019-01-17T05:55:00.924Z,14
2019-01-17T06:00:23.729Z,15.4
2019-01-17T06:05:46.533Z,14.1
2019-01-17T06:11:10.567Z,12.8
2019-01-17T06:16:33.373Z,14.8
2019-01-17T06:21:56.133Z,14
2019-01-17T06:27:18.840Z,17.6
2019-01-17T06:32:41.688Z,17
2019-01-17T06:38:04.362Z,18.299999
2019-01-17T06:43:27.162Z,16
2019-01-17T06:48:50.216Z,16.299999
2019-01-17T06:54:12.912Z,22.200001
2019-01-17T06:59:35.661Z,17
2019-01-17T07:04:58.934Z,16.4
2019-01-17T07:10:21.659Z,17.1
2019-01-17T07:15:45.289Z,17.4
2019-01-17T07:21:08.125Z,17.200001
2019-01-17T07:26:31.162Z,19.9
2019-01-17T07:31:56.252Z,20.1
2019-01-17T07:37:20.426Z,21.299999
2019-01-17T07:42:43.255Z,22.1
2019-01-17T07:48:07.797Z,21.799999
2019-01-17T07:53:32.436Z,24.299999
2019-01-17T07:58:56.766Z,22.299999
2019-01-17T08:04:19.724Z,22.700001
2019-01-17T08:09:42.808Z,26.4
2019-01-17T08:15:06.397Z,24.4
2019-01-17T08:20:29.881Z,30
2019-01-17T08:25:54.238Z,24.200001
2019-01-17T08:31:15.462Z,22.299999
2019-01-17T08:36:38.231Z,22.1
2019-01-17T08:42:00.899Z,22.1
2019-01-17T08:47:24.550Z,23.9
2019-01-17T08:52:48.257Z,25.200001
2019-01-17T08:58:11.595Z,22.4
2019-01-17T09:03:34.848Z,25.4
2019-01-17T09:08:59.232Z,25.6
2019-01-17T09:14:22.586Z,24.799999
2019-01-17T09:19:46.960Z,28.700001
2019-01-17T09:25:09.881Z,26
2019-01-17T09:30:36.272Z,24.799999
2019-01-17T09:35:59.549Z,23.799999
2019-01-17T09:41:22.772Z,23.4
2019-01-17T09:46:46.317Z,22.4
2019-01-17T09:52:09.196Z,22
2019-01-17T09:57:32.067Z,23
2019-01-17T10:02:57.967Z,26.299999
2019-01-17T10:08:22.430Z,26.200001
2019-01-17T10:13:45.124Z,26.4
2019-01-17T10:19:08.509Z,25.299999
2019-01-17T10:24:33.760Z,27.1
2019-01-17T10:29:57.260Z,21.299999
2019-01-17T10:35:20.561Z,24.299999
2019-01-17T10:40:43.392Z,21.299999
2019-01-17T10:46:06.874Z,24.5
2019-01-17T10:51:31.246Z,22.1
2019-01-17T10:56:54.859Z,23.299999
2019-01-17T11:02:16.832Z,21.6
2019-01-17T11:07:40.268Z,14.5
2019-01-17T11:13:03.872Z,17.299999
2019-01-17T11:18:28.683Z,14.5
2019-01-17T11:23:51.636Z,14.4
2019-01-17T11:29:16.285Z,10.6
2019-01-17T11:34:38.975Z,6.3
2019-01-17T11:40:02.734Z,7.1
2019-01-17T11:45:25.508Z,4.8
2019-01-17T11:50:49.482Z,3.9
2019-01-17T11:56:12.336Z,5.1
2019-01-17T12:01:35.051Z,4.6
2019-01-17T12:06:57.768Z,4.3
2019-01-17T12:12:20.262Z,5
2019-01-17T12:17:42.920Z,6.7
2019-01-17T12:23:07.162Z,5.7
2019-01-17T12:28:30.204Z,7.9
2019-01-17T12:33:52.957Z,7.1
2019-01-17T12:39:15.621Z,7.1
2019-01-17T12:44:39.757Z,8.1
2019-01-17T12:50:02.477Z,9.2
2019-01-17T12:55:25.398Z,6.8
2019-01-17T13:00:48.178Z,9.5
2019-01-17T13:06:11.376Z,6.4
2019-01-17T13:11:34.159Z,8.5
2019-01-17T13:16:57.642Z,11.6
2019-01-17T13:22:21.439Z,13.7
2019-01-17T13:27:44.850Z,12.4
2019-01-17T13:33:09.242Z,10.5
2019-01-17T13:38:32.874Z,10.8
2019-01-17T13:43:56.491Z,16.6
2019-01-17T13:49:19.202Z,12.8
2019-01-17T13:54:42.857Z,9.9
2019-01-17T14:00:05.554Z,7.2
2019-01-17T14:05:28.345Z,9.9
2019-01-17T14:10:51.243Z,6.1
2019-01-17T14:16:13.986Z,7.9
2019-01-17T14:21:36.773Z,8.7
2019-01-17T14:27:01.312Z,5.9
2019-01-17T14:32:24.258Z,8
2019-01-17T14:37:47.501Z,5.4
2019-01-17T14:43:10.288Z,5.3
2019-01-17T14:48:33.759Z,4.4
2019-01-17T14:53:58.725Z,5
2019-01-17T14:59:22.735Z,4.5
2019-01-17T15:04:45.504Z,3.2
2019-01-17T15:10:20.157Z,6.8
2019-01-17T15:15:44.751Z,2.8
2019-01-17T15:21:07.768Z,3.1
2019-01-17T15:26:30.551Z,7.8
2019-01-17T15:31:54.329Z,7.6
2019-01-17T15:37:17.161Z,7.1
2019-01-17T15:42:42.931Z,7.9
2019-01-17T15:48:05.914Z,8
2019-01-17T15:53:33.266Z,7.2
2019-01-17T15:58:57.134Z,8.6
2019-01-17T16:04:19.934Z,4.6
2019-01-17T16:09:43.712Z,9.4
2019-01-17T16:15:07.099Z,6.8
2019-01-17T16:20:29.972Z,7.9
2019-01-17T16:25:52.878Z,8.3
2019-01-17T16:31:16.391Z,6.4
2019-01-17T16:36:39.273Z,8.2
2019-01-17T16:42:02.264Z,7.5
2019-01-17T16:47:25.945Z,8.8
2019-01-17T16:52:49.757Z,10.1
2019-01-17T16:58:12.528Z,12.2
2019-01-17T17:03:37.221Z,15.5
2019-01-17T17:09:00.352Z,18.299999
2019-01-17T17:14:23.280Z,14.5
2019-01-17T17:19:46.674Z,16.9
2019-01-17T17:25:09.514Z,10.4
2019-01-17T17:30:32.477Z,9.4
2019-01-17T17:35:55.511Z,16.200001
2019-01-17T17:41:18.581Z,14
2019-01-17T17:46:41.681Z,14.2
2019-01-17T17:52:04.508Z,17.6
2019-01-17T17:57:27.724Z,14.1
2019-01-17T18:02:52.578Z,12
2019-01-17T18:08:16.719Z,16.4
2019-01-17T18:13:41.596Z,10.6
2019-01-17T18:19:05.545Z,10.7
2019-01-17T18:24:28.380Z,9.2
2019-01-17T18:29:51.065Z,13.1
2019-01-17T18:35:15.770Z,9.7
2019-01-17T18:40:39.287Z,9.9
2019-01-17T18:46:03.421Z,10
2019-01-17T18:51:28.461Z,14.2
2019-01-17T18:56:51.943Z,9.9
2019-01-17T19:02:14.620Z,10.7
2019-01-17T19:07:41.544Z,9.4
2019-01-17T19:13:04.250Z,9.6
2019-01-17T19:18:28.948Z,9.1
2019-01-17T19:23:52.448Z,12.2
2019-01-17T19:29:15.476Z,11.3
2019-01-17T19:34:38.426Z,10
2019-01-17T19:40:02.271Z,8.3
2019-01-17T19:45:25.901Z,10.1
2019-01-17T19:50:48.576Z,11.8
2019-01-17T19:56:11.640Z,8.2
2019-01-17T20:01:35.245Z,9.1
2019-01-17T20:06:57.295Z,7.2
2019-01-17T20:12:30.090Z,9.5
2019-01-17T20:17:53.071Z,8.3
2019-01-17T20:23:16.937Z,6.7
2019-01-17T20:28:39.905Z,4.8
2019-01-17T20:34:03.518Z,6.6
2019-01-17T20:39:26.459Z,5.8
2019-01-17T20:44:50.328Z,6.6
2019-01-17T20:50:13.401Z,8.8
2019-01-17T20:55:36.892Z,8.7
2019-01-17T21:01:00.511Z,5.3
2019-01-17T21:06:23.316Z,8.6
2019-01-17T21:11:48.299Z,5.1
2019-01-17T21:17:11.326Z,6.7
2019-01-17T21:22:34.545Z,5.7
2019-01-17T21:27:57.597Z,4.2
2019-01-17T21:33:20.308Z,7.8
2019-01-17T21:38:43.114Z,3.8
2019-01-17T21:44:08.174Z,8.9
2019-01-17T21:49:34.389Z,7.6
2019-01-17T21:55:04.221Z,6.3
2019-01-17T22:00:28.024Z,10.2
2019-01-17T22:05:51.896Z,10
2019-01-17T22:11:15.255Z,12.9
2019-01-17T22:16:38.612Z,10.7
2019-01-17T22:22:02.239Z,12.7
2019-01-17T22:27:29.824Z,14.3
2019-01-17T22:32:55.247Z,10.8
2019-01-17T22:38:18.921Z,10.8
2019-01-17T22:43:42.211Z,9.7
2019-01-17T22:49:06.756Z,12.5
2019-01-17T22:54:29.710Z,10.2
2019-01-17T22:59:54.862Z,10
2019-01-17T23:05:18.319Z,12.1
2019-01-17T23:10:42.736Z,13.5
2019-01-17T23:16:06.852Z,10.6
2019-01-17T23:21:29.850Z,10.3
2019-01-17T23:26:52.529Z,11.7
2019-01-17T23:32:17.741Z,9.7
2019-01-17T23:37:41.710Z,11.7
2019-01-17T23:43:06.720Z,12.7
2019-01-17T23:48:32.230Z,11.5
2019-01-17T23:53:55.974Z,9.1
2019-01-17T23:59:22.675Z,14.3
